sensor_id;sensor_type;location;lat;lon;timestamp;temperature;humidity
14723;DHT22;7452;55.594;12.986;2022-09-21T00:01:14;10.60;99.90
14723;DHT22;7452;55.594;12.986;2022-09-21T00:03:42;10.50;99.90
14723;DHT22;7452;55.594;12.986;2022-09-21T00:06:12;10.50;99.90
14723;DHT22;7452;55.594;12.986;2022-09-21T00:08:39;10.40;99.90
14723;DHT22;7452;55.594;12.986;2022-09-21T00:11:11;10.40;99.90
14723;DHT22;7452;55.594;12.986;2022-09-21T00:13:39;10.30;99.90
14723;DHT22;7452;55.594;12.986;2022-09-21T00:16:07;10.30;99.90
14723;DHT22;7452;55.594;12.986;2022-09-21T00:18:34;10.30;99.90
14723;DHT22;7452;55.594;12.986;2022-09-21T00:21:06;10.20;99.90
14723;DHT22;7452;55.594;12.986;2022-09-21T00:23:33;10.20;99.90
14723;DHT22;7452;55.594;12.986;2022-09-21T00:26:06;10.20;99.90
14723;DHT22;7452;55.594;12.986;2022-09-21T00:28:36;10.20;99.90
14723;DHT22;7452;55.594;12.986;2022-09-21T00:31:04;10.10;99.90
14723;DHT22;7452;55.594;12.986;2022-09-21T00:33:32;10.10;99.90
14723;DHT22;7452;55.594;12.986;2022-09-21T00:36:03;10.10;99.90
14723;DHT22;7452;55.594;12.986;2022-09-21T00:38:32;10.00;99.90
14723;DHT22;7452;55.594;12.986;2022-09-21T00:40:59;10.00;99.90
14723;DHT22;7452;55.594;12.986;2022-09-21T00:43:31;9.90;99.90
14723;DHT22;7452;55.594;12.986;2022-09-21T00:46:03;9.90;99.90
14723;DHT22;7452;55.594;12.986;2022-09-21T00:48:31;9.90;99.90
14723;DHT22;7452;55.594;12.986;2022-09-21T00:51:01;9.90;99.90
14723;DHT22;7452;55.594;12.986;2022-09-21T00:53:28;9.90;99.90
14723;DHT22;7452;55.594;12.986;2022-09-21T00:55:57;9.90;99.90
14723;DHT22;7452;55.594;12.986;2022-09-21T00:58:30;9.80;99.90
14723;DHT22;7452;55.594;12.986;2022-09-21T01:01:00;9.80;99.90
14723;DHT22;7452;55.594;12.986;2022-09-21T01:03:30;9.80;99.90
14723;DHT22;7452;55.594;12.986;2022-09-21T01:05:57;9.70;99.90
14723;DHT22;7452;55.594;12.986;2022-09-21T01:08:26;9.70;99.90
14723;DHT22;7452;55.594;12.986;2022-09-21T01:11:15;9.70;99.90
14723;DHT22;7452;55.594;12.986;2022-09-21T01:14:12;9.70;99.90
14723;DHT22;7452;55.594;12.986;2022-09-21T01:16:47;9.70;99.90
14723;DHT22;7452;55.594;12.986;2022-09-21T01:19:29;9.70;99.90
14723;DHT22;7452;55.594;12.986;2022-09-21T01:22:03;9.60;99.90
14723;DHT22;7452;55.594;12.986;2022-09-21T01:24:45;9.60;99.90
14723;DHT22;7452;55.594;12.986;2022-09-21T01:27:43;9.60;99.90
14723;DHT22;7452;55.594;12.986;2022-09-21T01:30:14;9.60;99.90
14723;DHT22;7452;55.594;12.986;2022-09-21T01:32:45;9.60;99.90
14723;DHT22;7452;55.594;12.986;2022-09-21T01:35:18;9.50;99.90
14723;DHT22;7452;55.594;12.986;2022-09-21T01:37:47;9.50;99.90
14723;DHT22;7452;55.594;12.986;2022-09-21T01:40:20;9.50;99.90
14723;DHT22;7452;55.594;12.986;2022-09-21T01:42:50;9.40;99.90
14723;DHT22;7452;55.594;12.986;2022-09-21T01:45:25;9.40;99.90
14723;DHT22;7452;55.594;12.986;2022-09-21T01:47:56;9.40;99.90
14723;DHT22;7452;55.594;12.986;2022-09-21T01:50:28;9.40;99.90
14723;DHT22;7452;55.594;12.986;2022-09-21T01:52:58;9.30;99.90
14723;DHT22;7452;55.594;12.986;2022-09-21T01:55:31;9.30;99.90
14723;DHT22;7452;55.594;12.986;2022-09-21T01:58:06;9.30;99.90
14723;DHT22;7452;55.594;12.986;2022-09-21T02:00:37;9.30;99.90
14723;DHT22;7452;55.594;12.986;2022-09-21T02:03:10;9.20;99.90
14723;DHT22;7452;55.594;12.986;2022-09-21T02:05:38;9.20;99.90
14723;DHT22;7452;55.594;12.986;2022-09-21T02:08:07;9.20;99.90
14723;DHT22;7452;55.594;12.986;2022-09-21T02:10:38;9.10;99.90
14723;DHT22;7452;55.594;12.986;2022-09-21T02:13:06;9.00;99.90
14723;DHT22;7452;55.594;12.986;2022-09-21T02:15:50;9.10;99.90
14723;DHT22;7452;55.594;12.986;2022-09-21T02:18:35;9.10;99.90
14723;DHT22;7452;55.594;12.986;2022-09-21T02:21:10;9.10;99.90
14723;DHT22;7452;55.594;12.986;2022-09-21T02:23:43;9.10;99.90
14723;DHT22;7452;55.594;12.986;2022-09-21T02:26:13;9.10;99.90
14723;DHT22;7452;55.594;12.986;2022-09-21T02:28:49;9.00;99.90
14723;DHT22;7452;55.594;12.986;2022-09-21T02:31:25;9.00;99.90
14723;DHT22;7452;55.594;12.986;2022-09-21T02:34:00;9.10;99.90
14723;DHT22;7452;55.594;12.986;2022-09-21T02:36:32;9.00;99.90
14723;DHT22;7452;55.594;12.986;2022-09-21T02:39:03;9.00;99.90
14723;DHT22;7452;55.594;12.986;2022-09-21T02:41:36;8.90;99.90
14723;DHT22;7452;55.594;12.986;2022-09-21T02:44:06;8.90;99.90
14723;DHT22;7452;55.594;12.986;2022-09-21T02:46:41;8.80;99.90
14723;DHT22;7452;55.594;12.986;2022-09-21T02:49:15;8.80;99.90
14723;DHT22;7452;55.594;12.986;2022-09-21T02:51:44;8.80;99.90
14723;DHT22;7452;55.594;12.986;2022-09-21T02:54:14;8.70;99.90
14723;DHT22;7452;55.594;12.986;2022-09-21T02:56:45;8.70;99.90
14723;DHT22;7452;55.594;12.986;2022-09-21T02:59:14;8.60;99.90
14723;DHT22;7452;55.594;12.986;2022-09-21T03:01:44;8.60;99.90
14723;DHT22;7452;55.594;12.986;2022-09-21T03:04:11;8.60;99.90
14723;DHT22;7452;55.594;12.986;2022-09-21T03:06:38;8.60;99.90
14723;DHT22;7452;55.594;12.986;2022-09-21T03:09:06;8.60;99.90
14723;DHT22;7452;55.594;12.986;2022-09-21T03:11:33;8.60;99.90
14723;DHT22;7452;55.594;12.986;2022-09-21T03:14:02;8.70;99.90
14723;DHT22;7452;55.594;12.986;2022-09-21T03:16:33;8.70;99.90
14723;DHT22;7452;55.594;12.986;2022-09-21T03:19:03;8.70;99.90
14723;DHT22;7452;55.594;12.986;2022-09-21T03:21:30;8.70;99.90
14723;DHT22;7452;55.594;12.986;2022-09-21T03:23:57;8.60;99.90
14723;DHT22;7452;55.594;12.986;2022-09-21T03:26:24;8.60;99.90
14723;DHT22;7452;55.594;12.986;2022-09-21T03:28:54;8.60;99.90
14723;DHT22;7452;55.594;12.986;2022-09-21T03:31:21;8.60;99.90
14723;DHT22;7452;55.594;12.986;2022-09-21T03:33:48;8.60;99.90
14723;DHT22;7452;55.594;12.986;2022-09-21T03:36:17;8.60;99.90
14723;DHT22;7452;55.594;12.986;2022-09-21T03:38:45;8.60;99.90
14723;DHT22;7452;55.594;12.986;2022-09-21T03:41:12;8.60;99.90
14723;DHT22;7452;55.594;12.986;2022-09-21T03:43:41;8.60;99.90
14723;DHT22;7452;55.594;12.986;2022-09-21T03:46:09;8.60;99.90
14723;DHT22;7452;55.594;12.986;2022-09-21T03:48:38;8.60;99.90
14723;DHT22;7452;55.594;12.986;2022-09-21T03:51:07;8.60;99.90
14723;DHT22;7452;55.594;12.986;2022-09-21T03:53:36;8.60;99.90
14723;DHT22;7452;55.594;12.986;2022-09-21T03:56:04;8.50;99.90
14723;DHT22;7452;55.594;12.986;2022-09-21T03:58:31;8.50;99.90
14723;DHT22;7452;55.594;12.986;2022-09-21T04:01:01;8.40;99.90
14723;DHT22;7452;55.594;12.986;2022-09-21T04:03:28;8.40;99.90
14723;DHT22;7452;55.594;12.986;2022-09-21T04:05:55;8.40;99.90
14723;DHT22;7452;55.594;12.986;2022-09-21T04:08:22;8.40;99.90
14723;DHT22;7452;55.594;12.986;2022-09-21T04:10:54;8.40;99.90
14723;DHT22;7452;55.594;12.986;2022-09-21T04:13:20;8.30;99.90
14723;DHT22;7452;55.594;12.986;2022-09-21T04:15:49;8.30;99.90
14723;DHT22;7452;55.594;12.986;2022-09-21T04:18:16;8.30;99.90
14723;DHT22;7452;55.594;12.986;2022-09-21T04:20:44;8.20;99.90
14723;DHT22;7452;55.594;12.986;2022-09-21T04:23:12;8.20;99.90
14723;DHT22;7452;55.594;12.986;2022-09-21T04:25:39;8.20;99.90
14723;DHT22;7452;55.594;12.986;2022-09-21T04:28:07;8.20;99.90
14723;DHT22;7452;55.594;12.986;2022-09-21T04:30:35;8.20;99.90
14723;DHT22;7452;55.594;12.986;2022-09-21T04:33:02;8.20;99.90
14723;DHT22;7452;55.594;12.986;2022-09-21T04:35:29;8.20;99.90
14723;DHT22;7452;55.594;12.986;2022-09-21T04:37:56;8.20;99.90
14723;DHT22;7452;55.594;12.986;2022-09-21T04:40:24;8.20;99.90
14723;DHT22;7452;55.594;12.986;2022-09-21T04:42:52;8.20;99.90
14723;DHT22;7452;55.594;12.986;2022-09-21T04:45:21;8.20;99.90
14723;DHT22;7452;55.594;12.986;2022-09-21T04:47:49;8.20;99.90
14723;DHT22;7452;55.594;12.986;2022-09-21T04:50:16;8.20;99.90
14723;DHT22;7452;55.594;12.986;2022-09-21T04:52:44;8.20;99.90
14723;DHT22;7452;55.594;12.986;2022-09-21T04:55:11;8.20;99.90
14723;DHT22;7452;55.594;12.986;2022-09-21T04:57:38;8.20;99.90
14723;DHT22;7452;55.594;12.986;2022-09-21T05:00:06;8.20;99.90
14723;DHT22;7452;55.594;12.986;2022-09-21T05:02:38;8.20;99.90
14723;DHT22;7452;55.594;12.986;2022-09-21T05:05:08;8.20;99.90
14723;DHT22;7452;55.594;12.986;2022-09-21T05:07:35;8.20;99.90
14723;DHT22;7452;55.594;12.986;2022-09-21T05:10:07;8.30;99.90
14723;DHT22;7452;55.594;12.986;2022-09-21T05:12:34;8.30;99.90
14723;DHT22;7452;55.594;12.986;2022-09-21T05:15:05;8.40;99.90
14723;DHT22;7452;55.594;12.986;2022-09-21T05:17:34;8.50;99.90
14723;DHT22;7452;55.594;12.986;2022-09-21T05:20:01;8.50;99.90
14723;DHT22;7452;55.594;12.986;2022-09-21T05:22:28;8.60;99.90
14723;DHT22;7452;55.594;12.986;2022-09-21T05:24:55;8.70;99.90
14723;DHT22;7452;55.594;12.986;2022-09-21T05:27:23;8.80;99.90
14723;DHT22;7452;55.594;12.986;2022-09-21T05:29:50;8.90;99.90
14723;DHT22;7452;55.594;12.986;2022-09-21T05:32:21;9.00;99.90
14723;DHT22;7452;55.594;12.986;2022-09-21T05:35:00;9.10;99.90
14723;DHT22;7452;55.594;12.986;2022-09-21T05:37:44;9.20;99.90
14723;DHT22;7452;55.594;12.986;2022-09-21T05:40:14;9.40;99.90
14723;DHT22;7452;55.594;12.986;2022-09-21T05:42:44;9.40;99.90
14723;DHT22;7452;55.594;12.986;2022-09-21T05:45:14;9.50;99.90
14723;DHT22;7452;55.594;12.986;2022-09-21T05:47:51;9.70;99.90
14723;DHT22;7452;55.594;12.986;2022-09-21T05:50:33;9.80;99.90
14723;DHT22;7452;55.594;12.986;2022-09-21T05:53:20;9.80;99.90
14723;DHT22;7452;55.594;12.986;2022-09-21T05:55:55;9.90;99.90
14723;DHT22;7452;55.594;12.986;2022-09-21T05:58:28;9.90;99.90
14723;DHT22;7452;55.594;12.986;2022-09-21T06:01:08;10.00;99.90
14723;DHT22;7452;55.594;12.986;2022-09-21T06:03:41;10.00;99.90
14723;DHT22;7452;55.594;12.986;2022-09-21T06:06:10;10.10;99.90
14723;DHT22;7452;55.594;12.986;2022-09-21T06:08:37;10.10;99.90
14723;DHT22;7452;55.594;12.986;2022-09-21T06:11:04;10.20;99.90
14723;DHT22;7452;55.594;12.986;2022-09-21T06:13:32;10.30;99.90
14723;DHT22;7452;55.594;12.986;2022-09-21T06:16:01;10.30;99.90
14723;DHT22;7452;55.594;12.986;2022-09-21T06:18:28;10.30;99.90
14723;DHT22;7452;55.594;12.986;2022-09-21T06:20:55;10.40;99.90
14723;DHT22;7452;55.594;12.986;2022-09-21T06:23:24;10.40;99.90
14723;DHT22;7452;55.594;12.986;2022-09-21T06:25:52;10.50;99.90
14723;DHT22;7452;55.594;12.986;2022-09-21T06:28:25;10.50;99.90
14723;DHT22;7452;55.594;12.986;2022-09-21T06:30:55;10.50;99.90
14723;DHT22;7452;55.594;12.986;2022-09-21T06:33:23;10.50;99.90
14723;DHT22;7452;55.594;12.986;2022-09-21T06:35:54;10.50;99.90
14723;DHT22;7452;55.594;12.986;2022-09-21T06:38:23;10.50;99.90
14723;DHT22;7452;55.594;12.986;2022-09-21T06:40:52;10.60;99.90
14723;DHT22;7452;55.594;12.986;2022-09-21T06:43:22;10.60;99.90
14723;DHT22;7452;55.594;12.986;2022-09-21T06:45:54;10.70;99.90
14723;DHT22;7452;55.594;12.986;2022-09-21T06:48:22;10.70;99.90
14723;DHT22;7452;55.594;12.986;2022-09-21T06:50:49;10.70;99.90
14723;DHT22;7452;55.594;12.986;2022-09-21T06:53:16;10.80;99.90
14723;DHT22;7452;55.594;12.986;2022-09-21T06:55:44;10.80;99.90
14723;DHT22;7452;55.594;12.986;2022-09-21T06:58:12;10.90;99.90
14723;DHT22;7452;55.594;12.986;2022-09-21T07:00:39;11.00;99.90
14723;DHT22;7452;55.594;12.986;2022-09-21T07:03:10;11.00;99.90
14723;DHT22;7452;55.594;12.986;2022-09-21T07:05:37;11.20;99.90
14723;DHT22;7452;55.594;12.986;2022-09-21T07:08:05;11.20;99.90
14723;DHT22;7452;55.594;12.986;2022-09-21T07:10:32;11.20;99.90
14723;DHT22;7452;55.594;12.986;2022-09-21T07:13:03;11.20;99.90
14723;DHT22;7452;55.594;12.986;2022-09-21T07:15:30;11.30;99.90
14723;DHT22;7452;55.594;12.986;2022-09-21T07:17:58;11.40;99.90
14723;DHT22;7452;55.594;12.986;2022-09-21T07:20:25;11.50;99.90
14723;DHT22;7452;55.594;12.986;2022-09-21T07:22:53;11.50;99.90
14723;DHT22;7452;55.594;12.986;2022-09-21T07:25:20;11.60;99.90
14723;DHT22;7452;55.594;12.986;2022-09-21T07:27:50;11.60;99.90
14723;DHT22;7452;55.594;12.986;2022-09-21T07:30:19;11.70;99.90
14723;DHT22;7452;55.594;12.986;2022-09-21T07:32:46;11.70;99.90
14723;DHT22;7452;55.594;12.986;2022-09-21T07:35:16;11.70;99.90
14723;DHT22;7452;55.594;12.986;2022-09-21T07:37:46;11.80;99.90
14723;DHT22;7452;55.594;12.986;2022-09-21T07:40:14;11.80;99.90
14723;DHT22;7452;55.594;12.986;2022-09-21T07:42:42;11.90;99.90
14723;DHT22;7452;55.594;12.986;2022-09-21T07:45:10;12.00;99.90
14723;DHT22;7452;55.594;12.986;2022-09-21T07:47:39;12.10;99.90
14723;DHT22;7452;55.594;12.986;2022-09-21T07:50:07;12.30;99.90
14723;DHT22;7452;55.594;12.986;2022-09-21T07:52:34;12.40;99.90
14723;DHT22;7452;55.594;12.986;2022-09-21T07:55:01;12.60;99.90
14723;DHT22;7452;55.594;12.986;2022-09-21T07:57:28;12.80;99.90
14723;DHT22;7452;55.594;12.986;2022-09-21T08:00:13;13.00;99.90
14723;DHT22;7452;55.594;12.986;2022-09-21T08:02:44;13.10;99.90
14723;DHT22;7452;55.594;12.986;2022-09-21T08:05:11;13.20;99.90
14723;DHT22;7452;55.594;12.986;2022-09-21T08:07:38;13.30;99.90
14723;DHT22;7452;55.594;12.986;2022-09-21T08:10:07;13.30;99.90
14723;DHT22;7452;55.594;12.986;2022-09-21T08:12:35;13.30;99.90
14723;DHT22;7452;55.594;12.986;2022-09-21T08:15:06;13.30;99.90
14723;DHT22;7452;55.594;12.986;2022-09-21T08:17:33;13.30;99.90
14723;DHT22;7452;55.594;12.986;2022-09-21T08:20:02;13.30;99.90
14723;DHT22;7452;55.594;12.986;2022-09-21T08:22:29;13.40;99.90
14723;DHT22;7452;55.594;12.986;2022-09-21T08:24:56;13.60;99.90
14723;DHT22;7452;55.594;12.986;2022-09-21T08:27:23;13.80;99.90
14723;DHT22;7452;55.594;12.986;2022-09-21T08:29:50;14.00;99.90
14723;DHT22;7452;55.594;12.986;2022-09-21T08:32:17;14.10;99.90
14723;DHT22;7452;55.594;12.986;2022-09-21T08:34:44;14.30;99.90
14723;DHT22;7452;55.594;12.986;2022-09-21T08:37:13;14.50;99.90
14723;DHT22;7452;55.594;12.986;2022-09-21T08:39:41;14.70;99.90
14723;DHT22;7452;55.594;12.986;2022-09-21T08:42:23;14.80;99.90
14723;DHT22;7452;55.594;12.986;2022-09-21T08:44:57;14.90;99.90
14723;DHT22;7452;55.594;12.986;2022-09-21T08:47:34;15.00;99.90
14723;DHT22;7452;55.594;12.986;2022-09-21T08:50:04;15.20;99.90
14723;DHT22;7452;55.594;12.986;2022-09-21T08:52:35;15.30;99.90
14723;DHT22;7452;55.594;12.986;2022-09-21T08:55:11;15.40;99.90
14723;DHT22;7452;55.594;12.986;2022-09-21T08:57:42;15.50;99.90
14723;DHT22;7452;55.594;12.986;2022-09-21T09:00:13;15.70;99.90
14723;DHT22;7452;55.594;12.986;2022-09-21T09:02:56;15.70;99.90
14723;DHT22;7452;55.594;12.986;2022-09-21T09:05:36;15.90;99.90
14723;DHT22;7452;55.594;12.986;2022-09-21T09:08:26;16.00;99.90
14723;DHT22;7452;55.594;12.986;2022-09-21T09:11:05;16.10;99.90
14723;DHT22;7452;55.594;12.986;2022-09-21T09:13:49;16.30;99.90
14723;DHT22;7452;55.594;12.986;2022-09-21T09:16:25;16.40;99.90
14723;DHT22;7452;55.594;12.986;2022-09-21T09:19:02;16.50;99.90
14723;DHT22;7452;55.594;12.986;2022-09-21T09:21:36;16.60;99.90
14723;DHT22;7452;55.594;12.986;2022-09-21T09:24:09;16.70;99.90
14723;DHT22;7452;55.594;12.986;2022-09-21T09:26:41;16.80;99.90
14723;DHT22;7452;55.594;12.986;2022-09-21T09:29:17;16.90;99.90
14723;DHT22;7452;55.594;12.986;2022-09-21T09:31:48;16.90;99.90
14723;DHT22;7452;55.594;12.986;2022-09-21T09:34:21;17.00;99.90
14723;DHT22;7452;55.594;12.986;2022-09-21T09:36:55;17.00;99.90
14723;DHT22;7452;55.594;12.986;2022-09-21T09:39:25;17.10;99.90
14723;DHT22;7452;55.594;12.986;2022-09-21T09:42:09;17.20;99.90
14723;DHT22;7452;55.594;12.986;2022-09-21T09:44:53;17.30;99.90
14723;DHT22;7452;55.594;12.986;2022-09-21T09:47:44;17.40;99.90
14723;DHT22;7452;55.594;12.986;2022-09-21T09:50:19;17.60;99.90
14723;DHT22;7452;55.594;12.986;2022-09-21T09:52:47;17.80;99.90
14723;DHT22;7452;55.594;12.986;2022-09-21T09:55:19;17.80;99.90
14723;DHT22;7452;55.594;12.986;2022-09-21T09:57:48;18.00;99.90
14723;DHT22;7452;55.594;12.986;2022-09-21T10:00:18;18.20;99.90
14723;DHT22;7452;55.594;12.986;2022-09-21T10:02:46;18.30;99.90
14723;DHT22;7452;55.594;12.986;2022-09-21T10:05:20;18.40;99.90
14723;DHT22;7452;55.594;12.986;2022-09-21T10:07:48;18.50;99.90
14723;DHT22;7452;55.594;12.986;2022-09-21T10:10:31;18.40;99.90
14723;DHT22;7452;55.594;12.986;2022-09-21T10:13:10;18.40;99.90
14723;DHT22;7452;55.594;12.986;2022-09-21T10:15:43;18.30;99.90
14723;DHT22;7452;55.594;12.986;2022-09-21T10:18:17;18.40;99.90
14723;DHT22;7452;55.594;12.986;2022-09-21T10:20:57;18.60;99.90
14723;DHT22;7452;55.594;12.986;2022-09-21T10:23:27;18.80;99.90
14723;DHT22;7452;55.594;12.986;2022-09-21T10:26:09;18.90;99.90
14723;DHT22;7452;55.594;12.986;2022-09-21T10:28:36;19.10;99.90
14723;DHT22;7452;55.594;12.986;2022-09-21T10:31:22;19.10;99.90
14723;DHT22;7452;55.594;12.986;2022-09-21T10:33:53;19.40;99.90
14723;DHT22;7452;55.594;12.986;2022-09-21T10:36:30;19.90;99.90
14723;DHT22;7452;55.594;12.986;2022-09-21T10:39:25;20.60;99.90
14723;DHT22;7452;55.594;12.986;2022-09-21T10:41:59;21.60;99.90
14723;DHT22;7452;55.594;12.986;2022-09-21T10:44:34;22.50;99.90
14723;DHT22;7452;55.594;12.986;2022-09-21T10:47:14;23.80;99.90
14723;DHT22;7452;55.594;12.986;2022-09-21T10:49:44;25.40;99.90
14723;DHT22;7452;55.594;12.986;2022-09-21T10:52:15;26.80;99.90
14723;DHT22;7452;55.594;12.986;2022-09-21T10:54:44;27.90;99.90
14723;DHT22;7452;55.594;12.986;2022-09-21T10:57:19;28.60;99.90
14723;DHT22;7452;55.594;12.986;2022-09-21T10:59:47;29.30;99.90
14723;DHT22;7452;55.594;12.986;2022-09-21T11:02:27;29.70;99.90
14723;DHT22;7452;55.594;12.986;2022-09-21T11:04:59;29.90;99.90
14723;DHT22;7452;55.594;12.986;2022-09-21T11:07:34;29.80;99.90
14723;DHT22;7452;55.594;12.986;2022-09-21T11:10:08;29.60;99.90
14723;DHT22;7452;55.594;12.986;2022-09-21T11:12:46;29.70;99.90
14723;DHT22;7452;55.594;12.986;2022-09-21T11:15:22;29.80;99.90
14723;DHT22;7452;55.594;12.986;2022-09-21T11:17:58;30.10;99.90
14723;DHT22;7452;55.594;12.986;2022-09-21T11:20:30;30.30;99.90
14723;DHT22;7452;55.594;12.986;2022-09-21T11:23:04;30.50;99.90
14723;DHT22;7452;55.594;12.986;2022-09-21T11:25:41;30.40;99.90
14723;DHT22;7452;55.594;12.986;2022-09-21T11:28:16;30.50;99.50
14723;DHT22;7452;55.594;12.986;2022-09-21T11:31:02;30.50;99.90
14723;DHT22;7452;55.594;12.986;2022-09-21T11:33:44;30.50;99.90
14723;DHT22;7452;55.594;12.986;2022-09-21T11:36:19;30.50;99.60
14723;DHT22;7452;55.594;12.986;2022-09-21T11:38:55;30.60;98.30
14723;DHT22;7452;55.594;12.986;2022-09-21T11:41:39;30.60;99.50
14723;DHT22;7452;55.594;12.986;2022-09-21T11:44:22;30.70;99.90
14723;DHT22;7452;55.594;12.986;2022-09-21T11:46:58;30.70;99.90
14723;DHT22;7452;55.594;12.986;2022-09-21T11:49:40;31.00;99.90
14723;DHT22;7452;55.594;12.986;2022-09-21T11:52:20;31.30;99.90
14723;DHT22;7452;55.594;12.986;2022-09-21T11:55:00;31.00;99.90
14723;DHT22;7452;55.594;12.986;2022-09-21T11:57:36;31.10;99.90
14723;DHT22;7452;55.594;12.986;2022-09-21T12:00:24;31.50;99.90
14723;DHT22;7452;55.594;12.986;2022-09-21T12:06:05;31.50;99.90
14723;DHT22;7452;55.594;12.986;2022-09-21T12:08:53;31.60;99.90
14723;DHT22;7452;55.594;12.986;2022-09-21T12:11:33;31.70;98.80
14723;DHT22;7452;55.594;12.986;2022-09-21T12:14:09;31.50;97.00
14723;DHT22;7452;55.594;12.986;2022-09-21T12:16:47;31.10;99.70
14723;DHT22;7452;55.594;12.986;2022-09-21T12:19:24;31.00;99.20
14723;DHT22;7452;55.594;12.986;2022-09-21T12:21:58;31.30;98.80
14723;DHT22;7452;55.594;12.986;2022-09-21T12:24:30;31.60;99.10
14723;DHT22;7452;55.594;12.986;2022-09-21T12:27:02;31.80;99.10
14723;DHT22;7452;55.594;12.986;2022-09-21T12:29:36;32.20;99.30
14723;DHT22;7452;55.594;12.986;2022-09-21T12:32:14;32.40;96.20
14723;DHT22;7452;55.594;12.986;2022-09-21T12:34:48;32.30;96.40
14723;DHT22;7452;55.594;12.986;2022-09-21T12:37:19;32.30;96.50
14723;DHT22;7452;55.594;12.986;2022-09-21T12:39:52;32.30;96.30
14723;DHT22;7452;55.594;12.986;2022-09-21T12:42:28;32.30;95.40
14723;DHT22;7452;55.594;12.986;2022-09-21T12:44:59;32.30;97.90
14723;DHT22;7452;55.594;12.986;2022-09-21T12:47:40;32.40;96.50
14723;DHT22;7452;55.594;12.986;2022-09-21T12:50:17;32.50;95.00
14723;DHT22;7452;55.594;12.986;2022-09-21T12:52:47;32.60;93.90
14723;DHT22;7452;55.594;12.986;2022-09-21T12:55:30;32.40;97.20
14723;DHT22;7452;55.594;12.986;2022-09-21T12:58:05;32.50;96.70
14723;DHT22;7452;55.594;12.986;2022-09-21T13:00:40;32.50;96.10
14723;DHT22;7452;55.594;12.986;2022-09-21T13:03:15;32.60;94.60
14723;DHT22;7452;55.594;12.986;2022-09-21T13:05:58;32.70;95.30
14723;DHT22;7452;55.594;12.986;2022-09-21T13:08:33;32.90;95.00
14723;DHT22;7452;55.594;12.986;2022-09-21T13:11:04;33.00;92.30
14723;DHT22;7452;55.594;12.986;2022-09-21T13:13:34;33.10;92.70
14723;DHT22;7452;55.594;12.986;2022-09-21T13:16:05;33.00;91.10
14723;DHT22;7452;55.594;12.986;2022-09-21T13:18:37;32.70;93.10
14723;DHT22;7452;55.594;12.986;2022-09-21T13:21:16;32.60;94.30
14723;DHT22;7452;55.594;12.986;2022-09-21T13:23:51;32.90;93.40
14723;DHT22;7452;55.594;12.986;2022-09-21T13:26:30;33.00;94.30
14723;DHT22;7452;55.594;12.986;2022-09-21T13:29:26;33.30;93.50
14723;DHT22;7452;55.594;12.986;2022-09-21T13:31:57;33.50;93.30
14723;DHT22;7452;55.594;12.986;2022-09-21T13:34:32;33.50;91.30
14723;DHT22;7452;55.594;12.986;2022-09-21T13:37:25;33.30;92.80
14723;DHT22;7452;55.594;12.986;2022-09-21T13:43:16;33.20;92.90
14723;DHT22;7452;55.594;12.986;2022-09-21T13:45:54;33.10;92.60
14723;DHT22;7452;55.594;12.986;2022-09-21T13:48:25;33.00;93.50
14723;DHT22;7452;55.594;12.986;2022-09-21T13:50:58;33.10;92.70
14723;DHT22;7452;55.594;12.986;2022-09-21T13:53:30;32.90;91.70
14723;DHT22;7452;55.594;12.986;2022-09-21T13:56:04;32.80;93.50
14723;DHT22;7452;55.594;12.986;2022-09-21T13:58:35;32.90;91.90
14723;DHT22;7452;55.594;12.986;2022-09-21T14:01:12;32.80;86.70
14723;DHT22;7452;55.594;12.986;2022-09-21T14:03:43;32.30;89.30
14723;DHT22;7452;55.594;12.986;2022-09-21T14:06:17;32.20;93.40
14723;DHT22;7452;55.594;12.986;2022-09-21T14:08:52;32.10;91.10
14723;DHT22;7452;55.594;12.986;2022-09-21T14:11:26;31.90;90.10
14723;DHT22;7452;55.594;12.986;2022-09-21T14:14:17;31.90;91.70
14723;DHT22;7452;55.594;12.986;2022-09-21T14:16:53;31.90;91.60
14723;DHT22;7452;55.594;12.986;2022-09-21T14:22:37;32.00;92.40
14723;DHT22;7452;55.594;12.986;2022-09-21T14:25:26;32.00;91.10
14723;DHT22;7452;55.594;12.986;2022-09-21T14:27:58;31.90;93.90
14723;DHT22;7452;55.594;12.986;2022-09-21T14:30:29;31.20;92.90
14723;DHT22;7452;55.594;12.986;2022-09-21T14:33:19;31.00;91.00
14723;DHT22;7452;55.594;12.986;2022-09-21T14:35:47;30.80;93.80
14723;DHT22;7452;55.594;12.986;2022-09-21T14:38:21;30.70;93.60
14723;DHT22;7452;55.594;12.986;2022-09-21T14:40:49;30.80;90.40
14723;DHT22;7452;55.594;12.986;2022-09-21T14:43:20;30.50;92.60
14723;DHT22;7452;55.594;12.986;2022-09-21T14:46:02;30.20;93.20
14723;DHT22;7452;55.594;12.986;2022-09-21T14:48:38;30.10;91.00
14723;DHT22;7452;55.594;12.986;2022-09-21T14:51:21;30.00;95.30
14723;DHT22;7452;55.594;12.986;2022-09-21T14:54:06;30.20;95.00
14723;DHT22;7452;55.594;12.986;2022-09-21T14:56:46;30.30;91.60
14723;DHT22;7452;55.594;12.986;2022-09-21T14:59:31;30.00;92.10
14723;DHT22;7452;55.594;12.986;2022-09-21T15:02:15;29.80;92.10
14723;DHT22;7452;55.594;12.986;2022-09-21T15:05:11;29.30;91.10
14723;DHT22;7452;55.594;12.986;2022-09-21T15:07:46;28.90;90.90
14723;DHT22;7452;55.594;12.986;2022-09-21T15:10:36;28.80;93.20
14723;DHT22;7452;55.594;12.986;2022-09-21T15:13:39;28.70;92.60
14723;DHT22;7452;55.594;12.986;2022-09-21T15:16:22;28.60;91.70
14723;DHT22;7452;55.594;12.986;2022-09-21T15:19:01;28.60;92.60
14723;DHT22;7452;55.594;12.986;2022-09-21T15:21:30;28.40;91.80
14723;DHT22;7452;55.594;12.986;2022-09-21T15:24:01;28.20;92.10
14723;DHT22;7452;55.594;12.986;2022-09-21T15:26:37;28.10;93.40
14723;DHT22;7452;55.594;12.986;2022-09-21T15:29:05;27.90;91.80
14723;DHT22;7452;55.594;12.986;2022-09-21T15:31:34;27.70;92.50
14723;DHT22;7452;55.594;12.986;2022-09-21T15:34:04;27.50;92.50
14723;DHT22;7452;55.594;12.986;2022-09-21T15:36:33;27.40;93.50
14723;DHT22;7452;55.594;12.986;2022-09-21T15:39:00;27.20;92.00
14723;DHT22;7452;55.594;12.986;2022-09-21T15:41:40;26.90;92.60
14723;DHT22;7452;55.594;12.986;2022-09-21T15:44:15;26.40;93.30
14723;DHT22;7452;55.594;12.986;2022-09-21T15:46:45;26.00;91.70
14723;DHT22;7452;55.594;12.986;2022-09-21T15:49:15;25.80;92.70
14723;DHT22;7452;55.594;12.986;2022-09-21T15:51:46;25.50;92.50
14723;DHT22;7452;55.594;12.986;2022-09-21T15:54:27;25.30;92.40
14723;DHT22;7452;55.594;12.986;2022-09-21T15:56:58;25.00;92.20
14723;DHT22;7452;55.594;12.986;2022-09-21T15:59:26;24.50;93.10
14723;DHT22;7452;55.594;12.986;2022-09-21T16:01:56;24.10;92.20
14723;DHT22;7452;55.594;12.986;2022-09-21T16:04:25;23.70;92.20
14723;DHT22;7452;55.594;12.986;2022-09-21T16:07:00;23.40;92.40
14723;DHT22;7452;55.594;12.986;2022-09-21T16:09:40;22.90;92.80
14723;DHT22;7452;55.594;12.986;2022-09-21T16:12:38;22.40;93.20
14723;DHT22;7452;55.594;12.986;2022-09-21T16:15:14;21.80;93.70
14723;DHT22;7452;55.594;12.986;2022-09-21T16:17:53;21.20;94.60
14723;DHT22;7452;55.594;12.986;2022-09-21T16:20:23;20.60;95.60